createdAt,value
2023-03-31T00:04:31.012Z,78.15
2023-03-31T00:10:17.318Z,78.06
2023-03-31T00:15:23.600Z,78.08
2023-03-31T00:20:55.257Z,78.47
2023-03-31T00:26:06.786Z,78.20
2023-03-31T00:31:12.287Z,78.46
2023-03-31T00:36:21.581Z,79.19
2023-03-31T00:42:46.538Z,79.51
2023-03-31T00:49:14.011Z,79.69
2023-03-31T00:55:10.557Z,79.82
2023-03-31T01:00:59.568Z,79.84
2023-03-31T01:06:08.273Z,79.64
2023-03-31T01:11:16.997Z,79.55
2023-03-31T01:16:31.462Z,79.47
2023-03-31T01:22:40.561Z,79.55
2023-03-31T01:29:21.374Z,79.56
2023-03-31T01:36:03.906Z,79.44
2023-03-31T01:43:03.155Z,79.47
2023-03-31T01:50:25.721Z,79.60
2023-03-31T01:56:28.916Z,79.65
2023-03-31T02:02:42.331Z,79.78
2023-03-31T02:08:50.114Z,80.24
2023-03-31T02:14:18.734Z,80.29
2023-03-31T02:19:48.792Z,80.12
2023-03-31T02:25:00.315Z,79.95
2023-03-31T02:32:13.178Z,79.97
2023-03-31T02:38:38.930Z,79.88
2023-03-31T02:44:44.967Z,79.64
2023-03-31T02:50:50.892Z,79.58
2023-03-31T02:57:49.031Z,79.63
2023-03-31T03:04:45.329Z,80.00
2023-03-31T03:11:36.259Z,79.91
2023-03-31T03:17:42.151Z,79.70
2023-03-31T03:24:24.001Z,79.63
2023-03-31T03:30:31.707Z,79.68
2023-03-31T03:37:24.777Z,79.70
2023-03-31T03:43:19.515Z,79.68
2023-03-31T03:49:29.175Z,79.63
2023-03-31T03:55:45.308Z,79.43
2023-03-31T04:01:02.418Z,79.24
2023-03-31T04:07:55.956Z,79.45
2023-03-31T04:13:58.317Z,79.82
2023-03-31T04:20:13.689Z,80.07
2023-03-31T04:25:23.165Z,80.17
2023-03-31T04:30:57.201Z,80.26
2023-03-31T04:37:14.141Z,80.64
2023-03-31T04:42:36.632Z,80.73
2023-03-31T04:47:44.811Z,80.84
2023-03-31T04:53:09.284Z,81.17
2023-03-31T04:58:40.917Z,81.22
2023-03-31T05:04:10.345Z,81.62
2023-03-31T05:10:18.543Z,82.07
2023-03-31T05:16:12.309Z,82.47
2023-03-31T05:21:39.812Z,82.61
2023-03-31T05:26:57.547Z,82.65
2023-03-31T05:32:18.483Z,82.87
2023-03-31T05:37:39.928Z,82.77
2023-03-31T05:42:43.154Z,82.39
2023-03-31T05:48:08.269Z,82.21
2023-03-31T05:53:54.241Z,82.04
2023-03-31T05:59:00.840Z,81.95
2023-03-31T06:04:33.820Z,81.66
2023-03-31T06:10:14.990Z,81.40
2023-03-31T06:15:41.654Z,80.32
2023-03-31T06:21:26.731Z,78.83
2023-03-31T06:26:44.772Z,77.79
2023-03-31T06:31:56.340Z,77.09
2023-03-31T06:37:41.583Z,76.47
2023-03-31T06:42:57.911Z,76.00
2023-03-31T06:48:05.126Z,75.55
2023-03-31T06:53:08.523Z,75.00
2023-03-31T06:58:12.416Z,74.48
2023-03-31T07:03:19.051Z,73.91
2023-03-31T07:08:36.216Z,73.39
2023-03-31T07:14:12.691Z,73.04
2023-03-31T07:19:25.530Z,72.37
2023-03-31T07:24:27.981Z,71.83
2023-03-31T07:29:30.313Z,71.14
2023-03-31T07:34:49.004Z,70.08
2023-03-31T07:40:05.136Z,68.71
2023-03-31T07:45:11.254Z,68.33
2023-03-31T07:50:15.199Z,67.22
2023-03-31T07:55:21.266Z,66.41
2023-03-31T08:00:35.127Z,66.02
2023-03-31T08:05:37.908Z,65.72
2023-03-31T08:10:50.979Z,64.82
2023-03-31T08:16:17.514Z,64.18
2023-03-31T08:21:32.608Z,63.58
2023-03-31T08:26:48.073Z,62.51
2023-03-31T08:31:50.551Z,62.23
2023-03-31T08:36:53.594Z,63.03
2023-03-31T08:42:02.571Z,62.79
2023-03-31T08:47:11.032Z,62.79
2023-03-31T08:52:19.006Z,62.80
2023-03-31T08:57:33.166Z,62.69
2023-03-31T09:03:05.009Z,62.58
2023-03-31T09:08:38.734Z,62.24
2023-03-31T09:14:02.784Z,61.93
2023-03-31T09:19:19.807Z,61.05
2023-03-31T09:24:44.800Z,60.92
2023-03-31T09:29:56.804Z,60.36
2023-03-31T09:35:14.550Z,59.87
2023-03-31T09:40:29.070Z,59.65
2023-03-31T09:45:34.007Z,60.70
2023-03-31T09:51:09.061Z,60.55
2023-03-31T09:56:11.694Z,61.25
2023-03-31T10:01:16.014Z,60.77
2023-03-31T10:06:19.041Z,59.87
2023-03-31T10:11:22.170Z,60.24
2023-03-31T10:16:30.207Z,59.88
2023-03-31T10:21:38.588Z,60.51
2023-03-31T10:26:47.089Z,61.36
2023-03-31T10:31:49.640Z,61.04
2023-03-31T10:37:21.527Z,60.92
2023-03-31T10:43:04.106Z,60.37
2023-03-31T10:48:50.300Z,60.02
2023-03-31T10:54:10.531Z,58.59
2023-03-31T11:00:11.253Z,57.72
2023-03-31T11:05:37.495Z,57.72
2023-03-31T11:10:47.852Z,58.76
2023-03-31T11:16:37.144Z,58.50
2023-03-31T11:22:19.747Z,58.73
2023-03-31T11:28:01.164Z,59.56
2023-03-31T11:34:12.104Z,60.26
2023-03-31T11:39:35.167Z,60.43
2023-03-31T11:44:54.813Z,60.21
2023-03-31T11:50:42.485Z,60.22
2023-03-31T11:56:56.808Z,60.48
2023-03-31T12:03:27.432Z,60.12
2023-03-31T12:09:36.962Z,59.20
2023-03-31T12:15:27.823Z,58.04
2023-03-31T12:20:38.370Z,56.64
2023-03-31T12:26:33.504Z,54.66
2023-03-31T12:31:43.563Z,50.48
2023-03-31T12:37:10.050Z,49.88
2023-03-31T12:42:54.961Z,50.61
2023-03-31T12:48:49.401Z,51.22
2023-03-31T12:54:50.174Z,52.04
2023-03-31T13:00:39.403Z,52.62
2023-03-31T13:07:02.492Z,54.10
2023-03-31T13:12:33.118Z,54.94
2023-03-31T13:18:00.668Z,56.74
2023-03-31T13:23:19.956Z,57.64
2023-03-31T13:28:42.428Z,59.23
2023-03-31T13:34:05.010Z,60.21
2023-03-31T13:40:07.602Z,62.11
2023-03-31T13:46:23.543Z,63.17
2023-03-31T13:52:02.333Z,63.83
2023-03-31T13:57:53.018Z,64.47
2023-03-31T14:03:51.429Z,65.18
2023-03-31T14:09:12.469Z,66.18
2023-03-31T14:14:19.485Z,69.63
2023-03-31T14:20:00.767Z,70.49
2023-03-31T14:26:23.931Z,70.77
2023-03-31T14:31:40.380Z,70.28
2023-03-31T14:37:17.741Z,69.68
2023-03-31T14:42:57.443Z,72.24
2023-03-31T14:48:16.477Z,71.04
2023-03-31T14:53:38.212Z,69.96
2023-03-31T14:58:50.152Z,69.59
2023-03-31T15:04:46.425Z,70.22
2023-03-31T15:09:56.414Z,71.98
2023-03-31T15:15:05.089Z,70.96
2023-03-31T15:20:35.447Z,69.62
2023-03-31T15:25:54.731Z,69.82
2023-03-31T15:31:09.613Z,67.96
2023-03-31T15:36:25.953Z,67.10
2023-03-31T15:41:41.646Z,66.53
2023-03-31T15:47:25.329Z,65.73
2023-03-31T15:52:35.197Z,65.31
2023-03-31T15:57:47.588Z,64.95
2023-03-31T16:03:05.765Z,65.18
2023-03-31T16:08:42.889Z,65.18
2023-03-31T16:14:23.053Z,65.68
2023-03-31T16:19:39.266Z,66.01
2023-03-31T16:24:46.792Z,66.07
2023-03-31T16:30:09.168Z,66.13
2023-03-31T16:35:19.884Z,66.26
2023-03-31T16:40:51.746Z,66.27
2023-03-31T16:46:04.182Z,66.37
2023-03-31T16:51:08.863Z,66.56
2023-03-31T16:56:15.364Z,66.90
2023-03-31T17:01:20.854Z,66.73
2023-03-31T17:06:47.550Z,67.21
2023-03-31T17:12:02.000Z,67.59
2023-03-31T17:17:07.601Z,68.48
2023-03-31T17:22:15.989Z,67.54
2023-03-31T17:28:04.319Z,68.50
2023-03-31T17:34:17.988Z,70.42
2023-03-31T17:40:18.572Z,72.43
2023-03-31T17:47:00.113Z,73.73
2023-03-31T17:53:28.421Z,74.40
2023-03-31T17:59:26.508Z,75.08
2023-03-31T18:04:55.036Z,75.14
2023-03-31T18:10:23.115Z,75.35
2023-03-31T18:16:49.283Z,74.46
2023-03-31T18:22:37.876Z,72.86
2023-03-31T18:29:02.858Z,73.85
2023-03-31T18:35:45.519Z,76.14
2023-03-31T18:42:25.677Z,77.14
2023-03-31T18:48:35.383Z,77.48
2023-03-31T18:55:29.232Z,77.33
2023-03-31T19:01:56.265Z,76.30
2023-03-31T19:08:11.156Z,77.09
2023-03-31T19:14:56.327Z,77.57
2023-03-31T19:21:50.382Z,77.73
2023-03-31T19:28:26.106Z,77.70
2023-03-31T19:35:09.820Z,77.59
2023-03-31T19:41:20.737Z,77.43
2023-03-31T19:47:54.310Z,75.52
2023-03-31T19:53:50.749Z,74.94
2023-03-31T19:59:33.926Z,75.44
2023-03-31T20:05:49.980Z,76.54
2023-03-31T20:11:54.879Z,76.82
2023-03-31T20:17:23.114Z,76.57
2023-03-31T20:23:54.099Z,75.97
2023-03-31T20:30:38.370Z,75.11
2023-03-31T20:37:05.309Z,74.06
2023-03-31T20:42:45.351Z,72.90
2023-03-31T20:49:31.602Z,71.56
2023-03-31T20:56:05.925Z,70.91
2023-03-31T21:01:37.410Z,70.79
2023-03-31T21:07:13.973Z,70.45
2023-03-31T21:13:18.481Z,70.55
2023-03-31T21:18:37.581Z,70.44
2023-03-31T21:23:53.985Z,70.36
2023-03-31T21:30:50.359Z,70.44
2023-03-31T21:36:45.316Z,70.61
2023-03-31T21:43:01.379Z,70.73
2023-03-31T21:49:43.352Z,71.18
2023-03-31T21:55:54.770Z,71.38
2023-03-31T22:02:35.773Z,71.63
2023-03-31T22:08:31.482Z,71.99
2023-03-31T22:15:15.601Z,72.32
2023-03-31T22:22:22.168Z,72.94
2023-03-31T22:28:38.009Z,73.25
2023-03-31T22:34:58.066Z,73.92
2023-03-31T22:40:33.687Z,74.17
2023-03-31T22:46:38.989Z,73.76
2023-03-31T22:52:17.842Z,74.28
2023-03-31T22:58:05.899Z,73.96
2023-03-31T23:04:11.770Z,74.07
2023-03-31T23:10:13.662Z,74.48
2023-03-31T23:17:03.607Z,74.96
2023-03-31T23:22:52.100Z,75.26
2023-03-31T23:29:09.783Z,75.40
2023-03-31T23:35:46.725Z,75.63
2023-03-31T23:42:27.859Z,75.57
2023-03-31T23:49:14.217Z,76.03
2023-03-31T23:55:26.152Z,75.82
